Time;durP1;ratioP1;P1;durP2;ratioP2;P2;SDS_P1;SDS_P2;PMS_P1;PMS_P2;Temp;Humidity;BMP_temperature;BMP_pressure;BME280_temperature;BME280_humidity;BME280_pressure;Samples;Min_cycle;Max_cycle;Signal;HPM_P1;HPM_P2
2021/07/25 00:01:11;;;;;;;2.53;2.33;;;;;;;;;;468735;254;29263;-71
2021/07/25 00:03:13;;;;;;;2.03;1.93;;;;;;;;;;468731;254;27991;-71
2021/07/25 00:05:16;;;;;;;2.43;2.20;;;;;;;;;;468688;254;27454;-71
2021/07/25 00:07:18;;;;;;;2.17;2.03;;;16.30;99.90;;;;;;468699;254;26349;-71
2021/07/25 00:09:20;;;;;;;2.00;1.90;;;16.30;99.90;;;;;;468743;254;27482;-71
2021/07/25 00:11:23;;;;;;;2.50;2.30;;;;;;;;;;468743;254;28817;-69
2021/07/25 00:13:24;;;;;;;2.30;2.10;;;16.20;99.90;;;;;;468714;254;26328;-70
2021/07/25 00:15:26;;;;;;;2.60;2.33;;;;;;;;;;468724;254;28821;-70
2021/07/25 00:17:28;;;;;;;2.10;2.00;;;;;;;;;;468739;254;27530;-70
2021/07/25 00:19:33;;;;;;;2.37;2.17;;;;;;;;;;468728;254;27528;-70
2021/07/25 00:21:35;;;;;;;2.97;2.67;;;;;;;;;;468750;254;26752;-70
2021/07/25 00:23:43;;;;;;;2.10;2.00;;;;;;;;;;468750;254;26804;-70
2021/07/25 00:25:42;;;;;;;2.23;2.10;;;;;;;;;;468383;254;26945;-70
2021/07/25 00:27:43;;;;;;;2.23;2.03;;;;;;;;;;468656;254;27492;-70
2021/07/25 00:29:45;;;;;;;2.23;2.03;;;;;;;;;;468752;254;27570;-70
2021/07/25 00:31:47;;;;;;;2.00;1.90;;;;;;;;;;468745;254;27465;-72
2021/07/25 00:33:49;;;;;;;2.10;2.00;;;;;;;;;;468744;254;27485;-70
2021/07/25 00:35:50;;;;;;;2.40;2.23;;;16.10;99.90;;;;;;468779;254;27554;-71
2021/07/25 00:37:52;;;;;;;1.90;1.80;;;16.10;99.90;;;;;;468743;254;28882;-71
2021/07/25 00:39:53;;;;;;;2.50;2.30;;;;;;;;;;468745;254;28876;-70
2021/07/25 00:41:55;;;;;;;2.00;1.90;;;16.20;99.90;;;;;;468742;254;27496;-71
2021/07/25 00:43:56;;;;;;;2.00;1.90;;;16.20;99.90;;;;;;468731;254;28825;-71
2021/07/25 00:46:00;;;;;;;1.90;1.80;;;;;;;;;;468746;254;28852;-71
2021/07/25 00:48:02;;;;;;;2.10;2.00;;;;;;;;;;468762;250;26337;-71
2021/07/25 00:50:04;;;;;;;2.10;2.00;;;;;;;;;;468746;254;27501;-71
2021/07/25 00:52:08;;;;;;;2.23;2.03;;;;;;;;;;468759;254;27989;-71
2021/07/25 00:54:10;;;;;;;1.90;1.80;;;;;;;;;;468773;254;26328;-72
2021/07/25 00:56:12;;;;;;;2.43;1.60;;;16.20;99.90;;;;;;468748;254;27489;-69
2021/07/25 00:58:14;;;;;;;1.70;1.60;;;;;;;;;;468746;253;28014;-69
2021/07/25 01:00:16;;;;;;;1.67;1.57;;;16.30;99.90;;;;;;468735;254;27972;-69
2021/07/25 01:02:18;;;;;;;2.13;2.03;;;;;;;;;;468767;254;27489;-69
2021/07/25 01:04:19;;;;;;;1.53;1.43;;;16.30;99.90;;;;;;468693;254;27903;-69
2021/07/25 01:06:20;;;;;;;2.10;2.00;;;16.20;99.90;;;;;;468723;254;28818;-69
2021/07/25 01:08:22;;;;;;;1.80;1.70;;;16.20;99.90;;;;;;468749;254;28852;-69
2021/07/25 01:10:24;;;;;;;1.77;1.67;;;;;;;;;;468651;254;28883;-71
2021/07/25 01:12:25;;;;;;;1.67;1.57;;;16.20;99.90;;;;;;468759;254;27569;-69
2021/07/25 01:14:28;;;;;;;1.90;1.80;;;;;;;;;;468741;254;28826;-69
2021/07/25 01:16:32;;;;;;;2.10;1.90;;;;;;;;;;468752;254;26396;-72
2021/07/25 01:18:34;;;;;;;1.80;1.70;;;16.30;99.90;;;;;;468756;254;26357;-72
2021/07/25 01:20:35;;;;;;;1.80;1.70;;;16.30;99.90;;;;;;468747;254;27442;-71
2021/07/25 01:22:36;;;;;;;1.77;1.67;;;16.30;99.90;;;;;;468751;254;28869;-70
2021/07/25 01:24:38;;;;;;;1.93;1.83;;;;;;;;;;468753;254;28843;-70
2021/07/25 01:26:41;;;;;;;1.80;1.70;;;;;;;;;;468753;254;27805;-70
2021/07/25 01:28:42;;;;;;;1.80;1.70;;;16.30;99.90;;;;;;468751;254;26377;-69
2021/07/25 01:30:44;;;;;;;1.80;1.70;;;16.40;99.90;;;;;;468732;254;28936;-70
2021/07/25 01:32:45;;;;;;;2.00;1.90;;;16.40;99.90;;;;;;468710;254;28881;-70
2021/07/25 01:34:46;;;;;;;2.30;2.10;;;16.40;99.90;;;;;;468733;252;28860;-70
2021/07/25 01:36:48;;;;;;;2.17;2.07;;;;;;;;;;468733;254;30064;-70
2021/07/25 01:38:49;;;;;;;2.20;2.00;;;16.50;99.90;;;;;;468755;254;28442;-70
2021/07/25 01:40:51;;;;;;;2.33;2.13;;;16.50;99.90;;;;;;468759;254;29357;-69
2021/07/25 01:42:52;;;;;;;2.67;2.47;;;16.40;99.90;;;;;;468717;254;29314;-70
2021/07/25 01:44:53;;;;;;;2.30;2.10;;;15.10;99.90;;;;;;468728;254;28806;-70
2021/07/25 01:46:54;;;;;;;3.07;2.77;;;16.50;99.90;;;;;;468732;254;28958;-71
2021/07/25 01:48:56;;;;;;;3.83;2.70;;;16.50;99.90;;;;;;468756;254;28853;-69
2021/07/25 01:50:57;;;;;;;3.13;2.83;;;16.60;99.90;;;;;;468749;254;28903;-69
2021/07/25 01:52:58;;;;;;;2.67;2.47;;;16.60;99.90;;;;;;468772;254;28865;-70
2021/07/25 01:55:02;;;;;;;4.40;3.10;;;;;;;;;;468754;254;28834;-71
2021/07/25 01:57:04;;;;;;;3.43;3.13;;;;;;;;;;468745;254;26325;-71
2021/07/25 01:59:06;;;;;;;3.60;3.30;;;;;;;;;;468745;254;27482;-71
2021/07/25 02:01:07;;;;;;;3.10;2.90;;;16.50;99.90;;;;;;468743;254;27486;-71
2021/07/25 02:03:09;;;;;;;4.10;3.40;;;;;;;;;;468733;253;29375;-71
2021/07/25 02:05:11;;;;;;;3.90;3.50;;;;;;;;;;468766;254;27490;-71
2021/07/25 02:07:13;;;;;;;3.50;3.20;;;;;;;;;;468753;254;27480;-69
2021/07/25 02:09:15;;;;;;;4.67;4.00;;;;;;;;;;468751;254;27494;-69
2021/07/25 02:11:18;;;;;;;3.40;3.03;;;16.40;99.90;;;;;;468740;254;27474;-70
2021/07/25 02:13:19;;;;;;;4.50;3.70;;;16.40;99.90;;;;;;468658;254;28841;-71
2021/07/25 02:15:20;;;;;;;3.90;3.60;;;16.40;99.90;;;;;;468730;254;26290;-71
2021/07/25 02:17:21;;;;;;;4.40;4.00;;;16.40;99.90;;;;;;468693;254;29409;-72
2021/07/25 02:19:25;;;;;;;4.00;3.60;;;;;;;;;;468721;254;29802;-71
2021/07/25 02:21:26;;;;;;;3.63;3.33;;;16.50;99.90;;;;;;468725;254;26278;-72
2021/07/25 02:23:28;;;;;;;4.40;4.00;;;;;;;;;;468723;254;28865;-69
2021/07/25 02:25:29;;;;;;;4.57;4.13;;;16.50;99.90;;;;;;468770;254;27480;-69
2021/07/25 02:27:31;;;;;;;5.23;3.53;;;;;;;;;;468734;254;28855;-71
2021/07/25 02:29:33;;;;;;;4.60;4.07;;;16.60;99.90;;;;;;468742;254;27489;-71
2021/07/25 02:31:34;;;;;;;4.00;3.60;;;16.70;99.90;;;;;;468738;254;28895;-70
2021/07/25 02:33:35;;;;;;;4.43;4.03;;;16.70;99.90;;;;;;468727;254;28927;-70
2021/07/25 02:35:36;;;;;;;4.40;4.00;;;16.70;99.90;;;;;;468704;254;28815;-71
2021/07/25 02:37:38;;;;;;;4.70;4.00;;;16.80;99.90;;;;;;468722;254;28942;-71
2021/07/25 02:39:39;;;;;;;4.37;3.97;;;16.80;99.90;;;;;;468728;254;28927;-71
2021/07/25 02:41:40;;;;;;;5.60;4.93;;;16.70;99.90;;;;;;468728;254;29075;-71
2021/07/25 02:43:41;;;;;;;4.60;3.90;;;16.80;99.90;;;;;;468737;254;29331;-71
2021/07/25 02:45:43;;;;;;;4.20;3.80;;;;;;;;;;468754;254;29284;-71
2021/07/25 02:47:47;;;;;;;4.43;3.97;;;;;;;;;;468753;254;27912;-70
2021/07/25 02:49:50;;;;;;;4.67;4.17;;;;;;;;;;468715;254;26379;-70
2021/07/25 02:51:51;;;;;;;4.53;3.90;;;16.70;99.90;;;;;;468772;254;26330;-70
2021/07/25 02:53:53;;;;;;;5.10;4.50;;;16.70;99.90;;;;;;468759;254;28830;-69
2021/07/25 02:55:55;;;;;;;4.43;4.00;;;;;;;;;;468697;254;28949;-69
2021/07/25 02:57:56;;;;;;;4.50;4.10;;;16.80;99.90;;;;;;468676;254;27592;-70
2021/07/25 02:59:57;;;;;;;4.87;4.37;;;16.80;99.90;;;;;;468678;254;28835;-70
2021/07/25 03:01:59;;;;;;;5.40;4.90;;;;;;;;;;468686;254;28961;-72
2021/07/25 03:04:01;;;;;;;4.57;4.00;;;;;;;;;;468719;254;27496;-72
2021/07/25 03:06:03;;;;;;;5.43;4.70;;;;;;;;;;468726;254;27485;-69
2021/07/25 03:08:06;;;;;;;5.20;4.57;;;;;;;;;;468543;254;28016;-69
2021/07/25 03:10:08;;;;;;;5.30;4.80;;;;;;;;;;468719;254;27941;-71
2021/07/25 03:12:11;;;;;;;5.53;4.83;;;;;;;;;;468738;254;27946;-69
2021/07/25 03:14:13;;;;;;;5.30;4.80;;;;;;;;;;468769;254;27160;-69
2021/07/25 03:16:15;;;;;;;6.70;5.10;;;;;;;;;;468717;254;28481;-69
2021/07/25 03:18:17;;;;;;;4.83;4.30;;;;;;;;;;468746;254;28043;-70
2021/07/25 03:20:19;;;;;;;5.60;4.70;;;16.90;99.90;;;;;;468749;254;28115;-70
2021/07/25 03:22:22;;;;;;;6.00;4.50;;;16.90;99.90;;;;;;468742;254;27505;-68
2021/07/25 03:24:22;;;;;;;5.00;4.50;;;;;;;;;;468643;254;28882;-69
2021/07/25 03:26:24;;;;;;;5.70;4.93;;;16.90;99.90;;;;;;468752;254;27567;-69
2021/07/25 03:28:28;;;;;;;5.30;4.80;;;;;;;;;;468744;254;27562;-69
2021/07/25 03:30:30;;;;;;;4.80;4.33;;;;;;;;;;468732;254;26803;-70
2021/07/25 03:32:31;;;;;;;5.47;4.97;;;16.90;99.90;;;;;;468734;254;26680;-69
2021/07/25 03:34:33;;;;;;;4.70;4.30;;;;;;;;;;468739;254;28882;-69
2021/07/25 03:36:35;;;;;;;5.23;4.73;;;;;;;;;;468723;254;27485;-69
2021/07/25 03:38:39;;;;;;;5.27;4.77;;;;;;;;;;468734;254;27565;-69
2021/07/25 03:40:43;;;;;;;6.93;5.73;;;;;;;;;;468760;254;26670;-69
2021/07/25 03:42:46;;;;;;;8.30;5.70;;;;;;;;;;468688;254;26302;-71
2021/07/25 03:44:49;;;;;;;6.77;6.10;;;;;;;;;;468721;254;26807;-71
2021/07/25 03:46:51;;;;;;;6.97;6.27;;;;;;;;;;468765;254;26840;-71
2021/07/25 03:48:53;;;;;;;6.47;5.80;;;16.90;99.90;;;;;;468732;254;27979;-71
2021/07/25 03:50:55;;;;;;;8.30;6.57;;;16.90;99.90;;;;;;468735;254;27465;-71
2021/07/25 03:52:57;;;;;;;7.73;6.77;;;;;;;;;;468657;254;28927;-71
2021/07/25 03:55:00;;;;;;;6.47;5.70;;;;;;;;;;468748;254;26298;-71
2021/07/25 03:57:03;;;;;;;10.87;6.33;;;;;;;;;;468730;254;26333;-71
2021/07/25 03:59:05;;;;;;;6.97;5.70;;;;;;;;;;468729;254;27585;-69
2021/07/25 04:01:07;;;;;;;8.00;6.67;;;;;;;;;;468721;254;27981;-71
2021/07/25 04:03:09;;;;;;;7.97;7.17;;;;;;;;;;468753;254;27968;-70
2021/07/25 04:05:12;;;;;;;8.33;6.30;;;;;;;;;;468738;254;28059;-70
2021/07/25 04:07:14;;;;;;;8.70;7.10;;;;;;;;;;468741;254;26441;-71
2021/07/25 04:09:16;;;;;;;8.87;7.13;;;;;;;;;;468736;254;27568;-69
2021/07/25 04:11:18;;;;;;;9.00;7.40;;;;;;;;;;468728;254;27481;-70
2021/07/25 04:13:20;;;;;;;9.93;7.30;;;;;;;;;;468735;254;28034;-71
2021/07/25 04:15:22;;;;;;;8.83;6.80;;;;;;;;;;468741;254;28003;-70
2021/07/25 04:17:24;;;;;;;9.03;6.37;;;16.90;99.90;;;;;;468711;254;27959;-71
2021/07/25 04:19:27;;;;;;;9.97;7.70;;;;;;;;;;468722;253;29285;-70
2021/07/25 04:21:28;;;;;;;8.83;7.50;;;;;;;;;;468622;254;27916;-71
2021/07/25 04:23:30;;;;;;;9.03;7.63;;;;;;;;;;468732;254;27438;-69
2021/07/25 04:25:33;;;;;;;8.93;7.17;;;;;;;;;;468730;254;27552;-72
2021/07/25 04:27:34;;;;;;;8.07;7.07;;;;;;;;;;468717;254;27536;-70
2021/07/25 04:29:36;;;;;;;8.37;7.10;;;;;;;;;;468748;254;27449;-71
2021/07/25 04:31:37;;;;;;;11.10;6.87;;;16.90;99.90;;;;;;468266;254;27450;-71
2021/07/25 04:33:38;;;;;;;7.80;6.70;;;17.00;99.90;;;;;;467613;254;28980;-71
2021/07/25 04:35:41;;;;;;;8.13;7.00;;;;;;;;;;467433;254;28995;-70
2021/07/25 04:37:48;;;;;;;8.43;6.87;;;;;;;;;;468213;254;27476;-71
2021/07/25 04:39:45;;;;;;;8.23;7.20;;;;;;;;;;468332;254;27496;-72
2021/07/25 04:41:46;;;;;;;7.73;6.93;;;17.10;99.90;;;;;;468758;254;27975;-71
2021/07/25 04:43:48;;;;;;;7.77;6.97;;;17.20;99.90;;;;;;468728;254;29407;-71
2021/07/25 04:45:50;;;;;;;8.83;7.30;;;17.10;99.90;;;;;;468754;254;27450;-69
2021/07/25 04:47:51;;;;;;;8.40;7.60;;;17.10;99.90;;;;;;468725;254;28906;-69
2021/07/25 04:49:53;;;;;;;8.33;7.10;;;;;;;;;;468742;254;28865;-69
2021/07/25 04:51:55;;;;;;;11.13;8.63;;;;;;;;;;468766;254;27538;-70
2021/07/25 04:53:56;;;;;;;9.70;7.73;;;17.10;99.90;;;;;;468733;254;27546;-71
2021/07/25 04:56:00;;;;;;;8.33;7.43;;;;;;;;;;468736;254;28829;-70
2021/07/25 04:58:02;;;;;;;9.57;7.43;;;17.20;99.90;;;;;;468736;254;26330;-71
2021/07/25 05:00:04;;;;;;;8.27;7.00;;;;;;;;;;468732;254;27497;-71
2021/07/25 05:02:07;;;;;;;8.50;7.33;;;;;;;;;;468731;254;27581;-72
2021/07/25 05:04:08;;;;;;;9.70;8.00;;;;;;;;;;468635;254;27502;-70
2021/07/25 05:06:14;;;;;;;8.30;7.50;;;17.30;99.90;;;;;;468747;254;27501;-70
2021/07/25 05:08:15;;;;;;;9.43;7.00;;;17.30;99.90;;;;;;468677;254;27454;-70
2021/07/25 05:10:17;;;;;;;9.20;7.10;;;;;;;;;;468725;250;27442;-70
2021/07/25 05:12:18;;;;;;;7.20;6.47;;;17.30;99.90;;;;;;468738;254;27450;-70
2021/07/25 05:14:21;;;;;;;7.37;6.67;;;;;;;;;;468709;254;28862;-70
2021/07/25 05:16:26;;;;;;;10.83;7.33;;;;;;;;;;468737;254;27486;-70
2021/07/25 05:18:25;;;;;;;6.97;6.20;;;17.50;99.90;;;;;;468491;254;27473;-72
2021/07/25 05:20:26;;;;;;;8.40;7.13;;;17.50;99.90;;;;;;468746;254;27961;-72
2021/07/25 05:22:27;;;;;;;8.83;6.40;;;17.60;99.90;;;;;;468711;254;29408;-72
2021/07/25 05:24:28;;;;;;;7.07;6.37;;;17.60;99.90;;;;;;468477;254;28821;-71
2021/07/25 05:26:30;;;;;;;8.30;6.93;;;17.60;99.90;;;;;;468736;254;28979;-71
2021/07/25 05:28:31;;;;;;;7.17;6.17;;;17.60;99.90;;;;;;468720;254;28830;-70
2021/07/25 05:30:32;;;;;;;6.90;6.10;;;17.70;99.90;;;;;;468759;254;28956;-70
2021/07/25 05:32:33;;;;;;;8.40;6.43;;;17.80;99.90;;;;;;468731;254;28864;-70
2021/07/25 05:34:35;;;;;;;6.70;5.97;;;17.80;99.90;;;;;;468759;254;28830;-71
2021/07/25 05:36:36;;;;;;;6.83;6.17;;;18.00;99.90;;;;;;468750;254;28951;-70
2021/07/25 05:38:37;;;;;;;6.17;5.57;;;18.00;99.90;;;;;;468759;254;28825;-70
2021/07/25 05:40:38;;;;;;;7.10;5.83;;;18.20;99.90;;;;;;468764;254;28826;-70
2021/07/25 05:42:40;;;;;;;7.17;6.40;;;18.20;99.90;;;;;;468738;254;29392;-70
2021/07/25 05:44:41;;;;;;;6.23;5.53;;;18.20;99.90;;;;;;468752;254;29284;-70
2021/07/25 05:46:42;;;;;;;6.97;6.27;;;18.20;99.90;;;;;;468740;254;29439;-70
2021/07/25 05:48:43;;;;;;;7.20;5.10;;;18.20;99.90;;;;;;468776;254;29447;-70
2021/07/25 05:50:45;;;;;;;6.93;5.33;;;18.30;99.90;;;;;;468751;254;28821;-70
2021/07/25 05:52:46;;;;;;;6.60;6.00;;;18.20;99.90;;;;;;468752;254;28948;-70
2021/07/25 05:54:47;;;;;;;6.63;5.90;;;18.20;99.90;;;;;;468750;254;28832;-69
2021/07/25 05:56:48;;;;;;;5.23;4.70;;;18.10;99.90;;;;;;468749;252;28930;-71
2021/07/25 05:58:50;;;;;;;6.00;5.40;;;18.10;99.90;;;;;;468752;254;28842;-70
2021/07/25 06:00:52;;;;;;;6.00;5.40;;;18.10;99.90;;;;;;468752;254;28926;-70
2021/07/25 06:02:52;;;;;;;6.50;4.80;;;18.10;99.90;;;;;;468719;254;28977;-70
2021/07/25 06:04:53;;;;;;;5.20;4.70;;;18.20;99.90;;;;;;468746;254;28830;-70
2021/07/25 06:06:56;;;;;;;4.93;4.53;;;18.10;99.90;;;;;;468771;254;29336;-70
2021/07/25 06:08:56;;;;;;;4.80;4.30;;;18.20;99.90;;;;;;468698;254;29359;-70
2021/07/25 06:10:57;;;;;;;6.00;5.40;;;18.20;99.90;;;;;;468741;254;29305;-72
2021/07/25 06:12:58;;;;;;;6.43;5.27;;;18.30;99.90;;;;;;468735;254;29332;-70
2021/07/25 06:15:00;;;;;;;5.60;5.10;;;18.30;99.90;;;;;;468747;254;28808;-71
2021/07/25 06:17:01;;;;;;;6.40;5.50;;;18.40;99.90;;;;;;468757;254;28854;-71
2021/07/25 06:19:02;;;;;;;5.10;4.60;;;18.30;99.90;;;;;;468705;254;28883;-72
2021/07/25 06:21:03;;;;;;;5.40;4.90;;;18.20;99.90;;;;;;468736;254;28938;-72
2021/07/25 06:23:06;;;;;;;6.70;5.07;;;18.20;99.90;;;;;;468770;254;28941;-69
2021/07/25 06:25:06;;;;;;;5.00;4.50;;;18.30;99.90;;;;;;468695;254;28916;-72
2021/07/25 06:27:07;;;;;;;5.10;4.60;;;18.30;99.90;;;;;;468749;254;28857;-72
2021/07/25 06:29:08;;;;;;;4.63;4.10;;;18.30;99.90;;;;;;468741;254;28831;-71
2021/07/25 06:31:10;;;;;;;4.77;3.83;;;18.40;99.90;;;;;;468747;254;29394;-72
2021/07/25 06:33:11;;;;;;;5.30;4.80;;;18.50;99.90;;;;;;468738;250;29349;-72
2021/07/25 06:35:12;;;;;;;4.60;4.20;;;18.50;99.90;;;;;;468758;254;29500;-72
2021/07/25 06:37:13;;;;;;;4.93;4.43;;;18.60;99.90;;;;;;468743;254;28841;-71
2021/07/25 06:39:15;;;;;;;6.80;4.93;;;18.60;99.90;;;;;;468736;254;28853;-71
2021/07/25 06:41:16;;;;;;;5.60;4.33;;;18.60;99.90;;;;;;468684;254;28905;-70
2021/07/25 06:43:17;;;;;;;4.47;4.07;;;18.50;99.90;;;;;;468742;254;28855;-70
2021/07/25 06:45:18;;;;;;;5.27;4.77;;;18.50;99.90;;;;;;468734;254;28831;-72
2021/07/25 06:47:20;;;;;;;5.50;4.33;;;18.60;99.90;;;;;;468750;254;28861;-72
2021/07/25 06:49:21;;;;;;;4.87;4.40;;;18.90;99.90;;;;;;468764;254;28846;-71
2021/07/25 06:51:22;;;;;;;6.47;5.23;;;19.00;99.90;;;;;;468745;254;28878;-70
2021/07/25 06:53:23;;;;;;;5.90;5.40;;;19.20;99.90;;;;;;468746;254;28854;-71
2021/07/25 06:55:25;;;;;;;6.13;5.37;;;19.30;99.90;;;;;;468715;254;29389;-72
2021/07/25 06:57:26;;;;;;;5.53;5.03;;;19.40;99.90;;;;;;468737;254;29429;-71
2021/07/25 06:59:27;;;;;;;5.90;5.30;;;19.50;99.90;;;;;;468759;254;30236;-71
2021/07/25 07:01:28;;;;;;;5.30;4.80;;;19.50;99.90;;;;;;468744;253;29290;-72
2021/07/25 07:03:30;;;;;;;5.90;4.90;;;19.60;99.90;;;;;;468737;254;28917;-72
2021/07/25 07:05:31;;;;;;;6.37;4.90;;;19.50;99.90;;;;;;468759;254;28836;-71
2021/07/25 07:07:32;;;;;;;6.10;5.50;;;19.30;99.90;;;;;;468739;254;28864;-72
2021/07/25 07:09:33;;;;;;;5.27;4.70;;;19.20;99.90;;;;;;468740;254;28844;-71
2021/07/25 07:11:35;;;;;;;6.17;5.67;;;19.20;99.90;;;;;;468750;254;28840;-71
2021/07/25 07:13:36;;;;;;;5.63;5.13;;;19.20;99.90;;;;;;468742;254;28880;-71
2021/07/25 07:15:37;;;;;;;6.27;5.67;;;19.20;99.90;;;;;;468727;254;28926;-71
2021/07/25 07:17:39;;;;;;;5.73;5.23;;;19.40;99.90;;;;;;468749;254;28864;-70
2021/07/25 07:19:40;;;;;;;6.10;5.60;;;19.50;99.90;;;;;;468730;254;29892;-71
2021/07/25 07:21:41;;;;;;;5.13;4.73;;;19.60;99.90;;;;;;468763;254;29392;-71
2021/07/25 07:23:42;;;;;;;5.10;4.70;;;19.70;99.90;;;;;;468751;254;29341;-71
2021/07/25 07:25:44;;;;;;;5.97;5.30;;;19.70;99.90;;;;;;468724;254;29413;-71
2021/07/25 07:27:45;;;;;;;5.03;4.63;;;19.60;99.90;;;;;;468741;254;28923;-71
2021/07/25 07:29:46;;;;;;;5.33;4.83;;;19.50;99.90;;;;;;468688;254;28894;-71
2021/07/25 07:31:47;;;;;;;5.90;5.30;;;19.50;99.90;;;;;;468730;254;28910;-70
2021/07/25 07:33:49;;;;;;;6.63;5.23;;;19.50;99.90;;;;;;468745;254;28859;-70
2021/07/25 07:35:53;;;;;;;4.77;4.37;;;19.40;99.90;;;;;;468762;254;28839;-71
2021/07/25 07:37:51;;;;;;;5.80;5.10;;;19.40;99.90;;;;;;468403;251;28858;-71
2021/07/25 07:39:52;;;;;;;5.10;4.70;;;19.00;99.90;;;;;;468737;254;29216;-72
2021/07/25 07:41:54;;;;;;;6.73;6.00;;;18.70;99.90;;;;;;468735;254;28825;-71
2021/07/25 07:43:55;;;;;;;5.00;4.30;;;18.70;99.90;;;;;;468701;252;28912;-71
2021/07/25 07:45:56;;;;;;;5.80;5.30;;;18.80;99.90;;;;;;468752;254;29366;-71
2021/07/25 07:47:57;;;;;;;5.50;5.10;;;18.80;99.90;;;;;;468729;254;29405;-72
2021/07/25 07:49:59;;;;;;;5.00;4.60;;;18.90;99.90;;;;;;468737;254;29491;-70
2021/07/25 07:52:00;;;;;;;5.00;4.60;;;18.90;99.90;;;;;;468736;254;28915;-71
2021/07/25 07:54:01;;;;;;;4.90;4.50;;;18.90;99.90;;;;;;468721;254;28854;-71
2021/07/25 07:56:02;;;;;;;5.60;5.10;;;18.90;99.90;;;;;;468755;254;28941;-71
2021/07/25 07:58:04;;;;;;;4.67;4.27;;;18.90;99.90;;;;;;468731;254;28847;-71
2021/07/25 08:00:05;;;;;;;4.57;4.17;;;18.90;99.90;;;;;;468729;254;28950;-71
2021/07/25 08:02:06;;;;;;;4.53;4.13;;;19.00;99.90;;;;;;468743;254;28846;-71
2021/07/25 08:04:07;;;;;;;4.80;4.40;;;19.00;99.90;;;;;;468726;254;28866;-71
2021/07/25 08:06:09;;;;;;;4.87;4.40;;;19.10;99.90;;;;;;468723;254;28827;-71
2021/07/25 08:08:10;;;;;;;4.63;3.97;;;19.20;99.90;;;;;;468716;254;28851;-71
2021/07/25 08:10:11;;;;;;;7.63;4.33;;;19.20;99.90;;;;;;468736;254;29315;-71
2021/07/25 08:12:12;;;;;;;4.70;4.27;;;19.00;99.90;;;;;;468634;254;29514;-71
2021/07/25 08:14:14;;;;;;;5.10;4.17;;;18.90;99.90;;;;;;468725;254;29421;-71
2021/07/25 08:16:15;;;;;;;4.40;4.00;;;18.70;99.90;;;;;;468750;254;28806;-71
2021/07/25 08:18:17;;;;;;;4.07;3.77;;;;;;;;;;468683;254;28827;-71
2021/07/25 08:20:18;;;;;;;4.17;3.77;;;18.80;99.90;;;;;;468731;254;27466;-71
2021/07/25 08:22:19;;;;;;;4.50;4.10;;;18.90;99.90;;;;;;468772;254;28939;-71
2021/07/25 08:24:21;;;;;;;3.83;3.53;;;18.90;99.90;;;;;;468725;254;28826;-71
2021/07/25 08:26:22;;;;;;;6.37;4.30;;;18.90;99.90;;;;;;468741;254;28935;-71
2021/07/25 08:28:23;;;;;;;4.70;4.30;;;18.90;99.90;;;;;;468741;254;28878;-72
2021/07/25 08:30:27;;;;;;;4.07;3.73;;;;;;;;;;468730;254;28838;-71
2021/07/25 08:32:27;;;;;;;4.40;3.93;;;;;;;;;;468653;254;27454;-71
2021/07/25 08:34:29;;;;;;;4.10;3.80;;;19.10;99.90;;;;;;468725;254;27502;-71
2021/07/25 08:36:30;;;;;;;8.93;4.80;;;19.30;99.90;;;;;;468742;254;29329;-71
2021/07/25 08:38:31;;;;;;;3.97;3.60;;;19.20;99.90;;;;;;468723;254;29540;-71
2021/07/25 08:40:32;;;;;;;4.30;3.90;;;19.20;99.90;;;;;;468710;254;29322;-71
2021/07/25 08:42:34;;;;;;;5.77;3.40;;;19.20;99.90;;;;;;468713;254;29228;-71
2021/07/25 08:44:35;;;;;;;3.90;3.60;;;19.30;99.90;;;;;;468734;254;28815;-71
2021/07/25 08:46:36;;;;;;;4.00;3.60;;;19.30;99.90;;;;;;468725;254;28867;-72
2021/07/25 08:48:37;;;;;;;3.23;2.93;;;19.50;99.90;;;;;;468729;254;28835;-71
2021/07/25 08:50:39;;;;;;;4.90;3.83;;;19.60;99.90;;;;;;468713;254;28858;-71
2021/07/25 08:52:40;;;;;;;2.90;2.67;;;19.70;99.90;;;;;;468722;254;28866;-71
2021/07/25 08:54:41;;;;;;;3.60;3.30;;;19.80;99.90;;;;;;468728;254;28826;-71
2021/07/25 08:56:42;;;;;;;4.13;3.70;;;19.80;99.90;;;;;;468740;254;28847;-71
2021/07/25 08:58:44;;;;;;;7.40;3.40;;;19.90;99.90;;;;;;468766;254;28854;-71
2021/07/25 09:00:45;;;;;;;3.57;3.27;;;20.00;99.90;;;;;;468730;254;29335;-71
2021/07/25 09:02:48;;;;;;;3.77;3.47;;;20.10;99.90;;;;;;468712;254;29460;-71
2021/07/25 09:04:47;;;;;;;4.53;3.40;;;20.20;99.90;;;;;;468627;254;29274;-71
2021/07/25 09:06:49;;;;;;;3.20;3.00;;;20.10;99.90;;;;;;468732;254;28903;-71
2021/07/25 09:08:50;;;;;;;3.20;3.00;;;19.90;99.90;;;;;;468756;254;28803;-71
2021/07/25 09:10:51;;;;;;;3.63;3.30;;;19.80;99.90;;;;;;468690;254;28911;-71
2021/07/25 09:12:52;;;;;;;4.13;3.13;;;19.90;99.90;;;;;;468768;254;28926;-71
2021/07/25 09:14:54;;;;;;;3.90;3.60;;;20.00;99.90;;;;;;468742;252;28955;-71
2021/07/25 09:16:55;;;;;;;3.60;3.30;;;19.90;99.90;;;;;;468747;254;28954;-69
2021/07/25 09:18:56;;;;;;;3.93;3.40;;;19.80;99.90;;;;;;468764;254;28838;-70
2021/07/25 09:20:57;;;;;;;4.20;3.30;;;19.80;99.90;;;;;;468743;254;28862;-71
2021/07/25 09:22:59;;;;;;;4.33;3.93;;;19.80;99.90;;;;;;468749;254;28966;-71
2021/07/25 09:25:00;;;;;;;4.13;3.30;;;19.90;99.90;;;;;;468756;254;29274;-71
2021/07/25 09:27:01;;;;;;;3.60;3.30;;;20.20;99.90;;;;;;468740;254;29321;-72
2021/07/25 09:29:02;;;;;;;4.03;3.73;;;20.30;99.90;;;;;;468694;254;29281;-71
2021/07/25 09:31:04;;;;;;;3.30;3.00;;;20.30;99.90;;;;;;468744;254;29473;-71
2021/07/25 09:33:05;;;;;;;4.00;3.30;;;20.50;99.90;;;;;;468755;254;28842;-71
2021/07/25 09:35:06;;;;;;;3.83;3.53;;;20.70;99.90;;;;;;468755;254;28998;-71
2021/07/25 09:37:07;;;;;;;3.53;3.23;;;21.00;99.90;;;;;;468762;254;28862;-71
2021/07/25 09:39:09;;;;;;;3.53;3.23;;;21.30;99.90;;;;;;468791;254;28827;-71
2021/07/25 09:41:10;;;;;;;5.60;3.07;;;21.60;99.90;;;;;;468753;254;28919;-71
2021/07/25 09:43:11;;;;;;;3.23;2.97;;;21.70;99.90;;;;;;468776;254;28869;-71
2021/07/25 09:45:12;;;;;;;3.70;3.40;;;21.70;99.90;;;;;;468775;254;28942;-72
2021/07/25 09:47:14;;;;;;;3.60;3.07;;;21.50;99.90;;;;;;468763;254;28895;-71
2021/07/25 09:49:15;;;;;;;4.30;3.00;;;21.40;99.90;;;;;;468759;254;29293;-72
2021/07/25 09:51:16;;;;;;;2.83;2.63;;;21.50;99.90;;;;;;468713;254;29377;-71
2021/07/25 09:53:17;;;;;;;3.57;3.27;;;21.50;99.90;;;;;;468712;254;29431;-72
2021/07/25 09:55:19;;;;;;;3.03;2.80;;;21.40;99.90;;;;;;468659;254;29359;-72
2021/07/25 09:57:20;;;;;;;2.93;2.73;;;21.40;99.90;;;;;;468751;254;28854;-72
2021/07/25 09:59:21;;;;;;;2.77;2.57;;;21.50;99.90;;;;;;468714;254;28813;-72
2021/07/25 10:01:22;;;;;;;3.00;2.80;;;21.60;99.90;;;;;;468714;254;28932;-71
2021/07/25 10:03:24;;;;;;;2.40;2.20;;;21.60;99.90;;;;;;468746;254;28953;-71
2021/07/25 10:05:26;;;;;;;2.63;2.43;;;21.60;99.90;;;;;;468729;254;28905;-69
2021/07/25 10:07:26;;;;;;;3.00;2.70;;;21.40;99.90;;;;;;468672;254;28959;-71
2021/07/25 10:09:27;;;;;;;2.53;2.33;;;21.50;99.90;;;;;;468735;254;28817;-71
2021/07/25 10:11:29;;;;;;;2.40;2.20;;;21.60;99.90;;;;;;468743;254;28959;-71
2021/07/25 10:13:30;;;;;;;2.97;2.70;;;21.50;99.90;;;;;;468745;254;29351;-70
2021/07/25 10:15:31;;;;;;;2.80;2.60;;;21.30;99.90;;;;;;468737;254;29274;-71
2021/07/25 10:17:33;;;;;;;3.60;3.30;;;21.20;99.90;;;;;;468754;254;29364;-71
2021/07/25 10:19:34;;;;;;;2.40;2.20;;;21.10;99.90;;;;;;468747;254;29325;-71
2021/07/25 10:21:35;;;;;;;2.60;2.40;;;21.10;99.90;;;;;;468730;253;28938;-71
2021/07/25 10:23:36;;;;;;;2.77;2.57;;;21.10;99.90;;;;;;468728;250;28849;-71
2021/07/25 10:25:37;;;;;;;3.17;2.87;;;21.00;99.90;;;;;;468728;254;28908;-70
2021/07/25 10:27:39;;;;;;;3.30;3.00;;;20.90;99.90;;;;;;468687;254;28874;-72
2021/07/25 10:29:40;;;;;;;3.33;3.03;;;20.90;99.90;;;;;;468722;254;28830;-71
2021/07/25 10:31:41;;;;;;;2.63;2.43;;;20.90;99.90;;;;;;468664;254;28880;-71
2021/07/25 10:33:42;;;;;;;3.40;2.67;;;21.10;99.90;;;;;;468754;254;28869;-71
2021/07/25 10:35:44;;;;;;;2.93;2.73;;;21.10;99.90;;;;;;468722;254;28937;-71
2021/07/25 10:37:46;;;;;;;3.37;2.53;;;21.20;99.90;;;;;;468735;254;29437;-71
2021/07/25 10:39:46;;;;;;;4.60;2.30;;;21.00;99.90;;;;;;468647;254;29285;-71
2021/07/25 10:41:47;;;;;;;2.30;2.20;;;21.00;99.90;;;;;;468716;254;29344;-71
2021/07/25 10:43:49;;;;;;;3.80;2.27;;;21.10;99.90;;;;;;468711;254;29369;-71
2021/07/25 10:45:50;;;;;;;2.70;2.50;;;21.30;99.90;;;;;;468689;254;28887;-71
2021/07/25 10:47:51;;;;;;;6.60;2.40;;;21.50;99.90;;;;;;468698;254;28857;-71
2021/07/25 10:49:52;;;;;;;2.57;2.37;;;21.40;99.90;;;;;;468702;254;28922;-69
2021/07/25 10:51:54;;;;;;;2.60;2.33;;;21.30;99.90;;;;;;468707;254;28877;-69
2021/07/25 10:53:57;;;;;;;2.90;2.70;;;21.40;99.90;;;;;;462551;249;28977;-72
2021/07/25 10:55:56;;;;;;;2.23;2.10;;;21.70;99.90;;;;;;461118;258;29042;-70
2021/07/25 10:57:57;;;;;;;2.03;1.93;;;21.70;99.90;;;;;;461224;257;29083;-71